createdAt,value
2019-06-20T00:00:06.931Z,3.83
2019-06-20T00:02:33.466Z,3.63
2019-06-20T00:05:00.106Z,3.90
2019-06-20T00:07:26.505Z,3.60
2019-06-20T00:09:53.032Z,3.53
2019-06-20T00:12:19.604Z,3.97
2019-06-20T00:14:46.082Z,4.27
2019-06-20T00:17:12.606Z,4.43
2019-06-20T00:19:39.270Z,3.37
2019-06-20T00:22:05.744Z,3.50
2019-06-20T00:24:32.179Z,3.70
2019-06-20T00:26:58.670Z,3.63
2019-06-20T00:29:25.157Z,3.70
2019-06-20T00:31:51.562Z,3.60
2019-06-20T00:34:18.037Z,3.13
2019-06-20T00:36:44.675Z,3.07
2019-06-20T00:39:10.981Z,3.50
2019-06-20T00:41:37.529Z,3.50
2019-06-20T00:44:04.196Z,3.80
2019-06-20T00:46:30.693Z,3.60
2019-06-20T00:48:57.183Z,3.67
2019-06-20T00:51:23.858Z,3.60
2019-06-20T00:53:50.571Z,3.60
2019-06-20T00:56:17.094Z,3.83
2019-06-20T00:58:43.696Z,3.53
2019-06-20T01:01:10.296Z,4.17
2019-06-20T01:03:36.874Z,3.70
2019-06-20T01:06:03.366Z,3.53
2019-06-20T01:08:29.678Z,3.53
2019-06-20T01:10:56.153Z,3.50
2019-06-20T01:13:33.178Z,3.53
2019-06-20T01:15:50.884Z,3.37
2019-06-20T01:18:17.294Z,3.53
2019-06-20T01:20:43.885Z,3.40
2019-06-20T01:23:10.322Z,3.77
2019-06-20T01:25:40.755Z,3.40
2019-06-20T01:28:07.465Z,3.83
2019-06-20T01:30:33.960Z,3.63
2019-06-20T01:33:00.553Z,3.83
2019-06-20T01:35:27.032Z,3.37
2019-06-20T01:37:53.525Z,3.40
2019-06-20T01:40:19.846Z,3.50
2019-06-20T01:42:46.415Z,3.37
2019-06-20T01:45:13.407Z,3.43
2019-06-20T01:47:39.876Z,3.00
2019-06-20T01:50:06.579Z,3.50
2019-06-20T01:52:32.965Z,3.57
2019-06-20T01:54:59.482Z,3.93
2019-06-20T01:57:26.011Z,3.53
2019-06-20T01:59:52.572Z,3.60
2019-06-20T02:02:18.947Z,3.73
2019-06-20T02:04:46.056Z,3.47
2019-06-20T02:07:12.687Z,4.17
2019-06-20T02:09:39.187Z,4.03
2019-06-20T02:12:05.716Z,4.10
2019-06-20T02:14:32.211Z,4.33
2019-06-20T02:16:58.693Z,3.80
2019-06-20T02:19:25.109Z,3.70
2019-06-20T02:21:51.814Z,3.80
2019-06-20T02:24:18.546Z,3.47
2019-06-20T02:26:44.987Z,3.97
2019-06-20T02:29:11.511Z,3.73
2019-06-20T02:31:37.902Z,4.43
2019-06-20T02:34:04.558Z,4.47
2019-06-20T02:36:30.941Z,5.07
2019-06-20T02:38:57.390Z,5.63
2019-06-20T02:41:23.798Z,6.20
2019-06-20T02:43:50.261Z,6.00
2019-06-20T02:46:16.846Z,6.70
2019-06-20T02:48:43.289Z,7.87
2019-06-20T02:51:09.892Z,8.37
2019-06-20T02:53:36.584Z,9.07
2019-06-20T02:56:03.412Z,10.10
2019-06-20T02:58:29.924Z,10.60
2019-06-20T03:00:59.125Z,9.43
2019-06-20T03:03:27.093Z,9.83
2019-06-20T03:05:54.096Z,10.13
2019-06-20T03:08:20.690Z,10.60
2019-06-20T03:10:47.213Z,10.30
2019-06-20T03:13:13.515Z,11.13
2019-06-20T03:15:40.042Z,11.23
2019-06-20T03:18:06.524Z,11.03
2019-06-20T03:20:32.955Z,11.57
2019-06-20T03:22:59.350Z,11.47
2019-06-20T03:25:25.760Z,12.10
2019-06-20T03:27:52.472Z,12.23
2019-06-20T03:30:19.352Z,13.50
2019-06-20T03:32:45.661Z,12.87
2019-06-20T03:35:12.458Z,12.70
2019-06-20T03:37:38.971Z,12.97
2019-06-20T03:40:06.141Z,13.67
2019-06-20T03:42:32.530Z,12.77
2019-06-20T03:45:02.578Z,12.40
2019-06-20T03:47:27.310Z,13.40
2019-06-20T03:49:53.757Z,13.47
2019-06-20T03:52:20.172Z,13.33
2019-06-20T03:54:46.460Z,13.73
2019-06-20T03:57:12.764Z,14.93
2019-06-20T03:59:39.135Z,15.13
2019-06-20T04:02:05.655Z,13.50
2019-06-20T04:04:32.015Z,10.33
2019-06-20T04:06:58.361Z,12.07
2019-06-20T04:09:24.624Z,14.43
2019-06-20T04:11:50.939Z,13.43
2019-06-20T04:14:17.451Z,14.67
2019-06-20T04:16:43.797Z,12.73
2019-06-20T04:19:10.112Z,13.63
2019-06-20T04:21:36.572Z,14.67
2019-06-20T04:24:03.210Z,15.77
2019-06-20T04:26:29.501Z,15.33
2019-06-20T04:28:56.037Z,15.27
2019-06-20T04:31:22.432Z,13.43
2019-06-20T04:33:48.866Z,14.93
2019-06-20T04:36:15.321Z,16.03
2019-06-20T04:38:41.702Z,16.57
2019-06-20T04:41:07.992Z,17.53
2019-06-20T04:43:34.424Z,17.90
2019-06-20T04:46:02.730Z,17.67
2019-06-20T04:48:29.246Z,17.33
2019-06-20T04:50:55.643Z,16.83
2019-06-20T04:53:22.126Z,15.87
2019-06-20T04:55:48.730Z,18.00
2019-06-20T04:58:15.130Z,17.90
2019-06-20T05:00:41.425Z,17.70
2019-06-20T05:03:07.935Z,17.07
2019-06-20T05:05:34.592Z,17.13
2019-06-20T05:08:00.859Z,17.40
2019-06-20T05:10:27.310Z,17.23
2019-06-20T05:12:55.934Z,15.13
2019-06-20T05:15:22.348Z,16.93
2019-06-20T05:17:48.888Z,18.20
2019-06-20T05:20:15.425Z,16.17
2019-06-20T05:22:41.815Z,17.47
2019-06-20T05:25:08.941Z,17.50
2019-06-20T05:27:35.524Z,16.83
2019-06-20T05:30:10.587Z,18.13
2019-06-20T05:32:37.308Z,18.03
2019-06-20T05:35:04.657Z,18.90
2019-06-20T05:37:31.272Z,17.77
2019-06-20T05:39:57.580Z,20.70
2019-06-20T05:42:23.969Z,21.57
2019-06-20T05:44:50.289Z,21.80
2019-06-20T05:47:16.871Z,22.73
2019-06-20T05:49:43.273Z,23.30
2019-06-20T05:52:09.742Z,25.73
2019-06-20T05:54:36.356Z,23.60
2019-06-20T05:57:04.568Z,24.73
2019-06-20T05:59:31.428Z,23.90
2019-06-20T06:01:57.975Z,24.50
2019-06-20T06:04:24.505Z,22.97
2019-06-20T06:06:53.932Z,24.30
2019-06-20T06:09:20.290Z,23.90
2019-06-20T06:11:46.929Z,25.53
2019-06-20T06:14:13.866Z,24.90
2019-06-20T06:16:44.005Z,24.73
2019-06-20T06:19:08.778Z,24.40
2019-06-20T06:21:35.146Z,24.13
2019-06-20T06:24:01.556Z,28.33
2019-06-20T06:26:28.126Z,28.87
2019-06-20T06:28:54.541Z,28.03
2019-06-20T06:31:21.092Z,27.07
2019-06-20T06:33:48.083Z,27.13
2019-06-20T06:36:14.762Z,29.20
2019-06-20T06:38:41.342Z,27.27
2019-06-20T06:41:07.726Z,26.17
2019-06-20T06:43:34.116Z,26.30
2019-06-20T06:46:00.637Z,26.87
2019-06-20T06:48:27.925Z,25.40
2019-06-20T06:50:54.492Z,25.63
2019-06-20T06:53:20.945Z,26.77
2019-06-20T06:55:47.326Z,26.40
2019-06-20T06:58:13.857Z,25.10
2019-06-20T07:00:40.378Z,24.33
2019-06-20T07:03:06.997Z,23.30
2019-06-20T07:05:33.535Z,21.40
2019-06-20T07:07:59.961Z,21.60
2019-06-20T07:10:26.598Z,21.53
2019-06-20T07:12:52.968Z,18.80
2019-06-20T07:15:19.751Z,20.70
2019-06-20T07:17:46.366Z,19.20
2019-06-20T07:20:15.439Z,20.40
2019-06-20T07:22:42.120Z,21.13
2019-06-20T07:25:21.849Z,20.80
2019-06-20T07:27:48.480Z,20.60
2019-06-20T07:30:17.118Z,19.97
2019-06-20T07:33:03.497Z,19.43
2019-06-20T07:35:29.925Z,21.27
2019-06-20T07:37:56.293Z,21.00
2019-06-20T07:40:22.850Z,20.60
2019-06-20T07:42:49.329Z,18.93
2019-06-20T07:45:19.767Z,18.27
2019-06-20T07:47:46.371Z,19.67
2019-06-20T07:50:14.882Z,17.73
2019-06-20T07:52:41.810Z,18.10
2019-06-20T07:55:08.872Z,18.27
2019-06-20T07:57:35.402Z,17.47
2019-06-20T08:00:08.549Z,18.33
2019-06-20T08:02:35.413Z,17.83
2019-06-20T08:05:04.084Z,17.00
2019-06-20T08:07:30.744Z,15.97
2019-06-20T08:09:57.291Z,16.03
2019-06-20T08:12:23.941Z,15.43
2019-06-20T08:14:50.577Z,14.93
2019-06-20T08:17:31.569Z,15.73
2019-06-20T08:19:45.439Z,15.67
2019-06-20T08:22:11.988Z,16.33
2019-06-20T08:24:38.623Z,16.07
2019-06-20T08:27:06.677Z,14.30
2019-06-20T08:29:33.191Z,14.70
2019-06-20T08:32:00.957Z,13.90
2019-06-20T08:34:28.192Z,14.40
2019-06-20T08:36:57.183Z,13.10
2019-06-20T08:39:23.162Z,13.33
2019-06-20T08:41:49.829Z,12.30
2019-06-20T08:44:16.500Z,11.47
2019-06-20T08:46:43.121Z,11.07
2019-06-20T08:49:09.762Z,8.93
2019-06-20T08:51:36.126Z,10.93
2019-06-20T08:54:03.425Z,10.07
2019-06-20T08:56:30.062Z,9.17
2019-06-20T08:58:57.358Z,9.90
2019-06-20T09:01:25.155Z,9.40
2019-06-20T09:03:51.639Z,9.93
2019-06-20T09:06:18.343Z,9.10
2019-06-20T09:08:45.104Z,8.97
2019-06-20T09:11:11.729Z,8.20
2019-06-20T09:13:40.619Z,7.70
2019-06-20T09:16:07.387Z,6.57
2019-06-20T09:18:34.078Z,7.27
2019-06-20T09:21:00.675Z,6.30
2019-06-20T09:23:27.265Z,5.93
2019-06-20T09:25:53.770Z,6.43
2019-06-20T09:28:21.294Z,5.73
2019-06-20T09:30:47.983Z,6.00
2019-06-20T09:33:14.453Z,5.30
2019-06-20T09:35:41.017Z,5.17
2019-06-20T09:38:07.709Z,5.03
2019-06-20T09:40:34.409Z,5.10
2019-06-20T09:43:01.238Z,5.40
2019-06-20T09:45:27.941Z,5.53
2019-06-20T09:47:55.924Z,5.30
2019-06-20T09:50:22.995Z,5.50
2019-06-20T09:52:51.314Z,4.70
2019-06-20T09:55:18.406Z,5.63
2019-06-20T09:57:45.158Z,5.40
2019-06-20T10:00:18.693Z,5.27
2019-06-20T10:02:47.155Z,5.70
2019-06-20T10:05:14.009Z,5.73
2019-06-20T10:07:40.682Z,5.67
2019-06-20T10:10:10.092Z,5.50
2019-06-20T10:12:36.769Z,5.60
2019-06-20T10:15:25.894Z,6.30
2019-06-20T10:17:52.769Z,6.50
2019-06-20T10:20:22.012Z,6.00
2019-06-20T10:22:48.653Z,5.57
2019-06-20T10:25:15.813Z,6.10
2019-06-20T10:27:42.568Z,5.63
2019-06-20T10:30:14.531Z,6.30
2019-06-20T10:32:39.712Z,6.13
2019-06-20T10:35:06.621Z,6.30
2019-06-20T10:37:33.238Z,4.90
2019-06-20T10:39:59.707Z,4.97
2019-06-20T10:42:26.317Z,5.27
2019-06-20T10:44:52.877Z,5.17
2019-06-20T10:47:31.677Z,5.30
2019-06-20T10:49:47.856Z,5.30
2019-06-20T10:52:15.904Z,5.93
2019-06-20T10:54:43.306Z,6.47
2019-06-20T10:57:10.180Z,5.90
2019-06-20T10:59:36.941Z,6.33
2019-06-20T11:02:06.488Z,5.50
2019-06-20T11:04:32.438Z,4.97
2019-06-20T11:06:59.112Z,4.70
2019-06-20T11:09:28.568Z,4.80
2019-06-20T11:11:55.679Z,4.73
2019-06-20T11:14:22.793Z,5.10
2019-06-20T11:16:49.418Z,4.77
2019-06-20T11:19:16.709Z,4.43
2019-06-20T11:21:43.880Z,4.80
2019-06-20T11:24:12.083Z,4.80
2019-06-20T11:26:39.395Z,4.53
2019-06-20T11:29:06.129Z,4.33
2019-06-20T11:31:32.848Z,4.30
2019-06-20T11:33:59.251Z,4.67
2019-06-20T11:36:25.802Z,4.57
2019-06-20T11:38:52.595Z,4.13
2019-06-20T11:41:19.394Z,4.10
2019-06-20T11:43:46.857Z,4.10
2019-06-20T11:46:13.418Z,4.47
2019-06-20T11:48:40.597Z,3.90
2019-06-20T11:51:08.362Z,3.93
2019-06-20T11:53:36.218Z,4.57
2019-06-20T11:56:03.396Z,4.13
2019-06-20T11:58:30.008Z,3.90
2019-06-20T12:01:03.446Z,3.73
2019-06-20T12:03:27.153Z,3.60
2019-06-20T12:05:53.837Z,3.73
2019-06-20T12:08:20.291Z,3.50
2019-06-20T12:10:47.342Z,3.90
2019-06-20T12:13:13.947Z,3.77
2019-06-20T12:15:41.672Z,3.50
2019-06-20T12:18:09.187Z,4.00
2019-06-20T12:20:36.035Z,4.10
2019-06-20T12:23:02.714Z,3.70
2019-06-20T12:25:29.494Z,3.60
2019-06-20T12:27:56.283Z,3.70
2019-06-20T12:30:25.383Z,3.87
2019-06-20T12:32:52.010Z,4.07
2019-06-20T12:35:18.864Z,4.00
2019-06-20T12:37:45.615Z,3.70
2019-06-20T12:40:16.523Z,4.50
2019-06-20T12:42:44.768Z,5.00
2019-06-20T12:45:14.192Z,5.43
2019-06-20T12:47:41.938Z,4.60
2019-06-20T12:50:10.313Z,4.20
2019-06-20T12:52:37.860Z,4.60
2019-06-20T12:55:06.513Z,4.03
2019-06-20T12:57:33.508Z,3.77
2019-06-20T13:00:00.735Z,3.83
2019-06-20T13:02:27.970Z,4.90
2019-06-20T13:04:55.109Z,4.60
2019-06-20T13:07:22.231Z,4.43
2019-06-20T13:09:50.471Z,5.13
2019-06-20T13:12:17.398Z,5.10
2019-06-20T13:14:45.623Z,4.60
2019-06-20T13:17:12.915Z,4.83
2019-06-20T13:19:40.320Z,5.40
2019-06-20T13:22:07.109Z,5.70
2019-06-20T13:24:33.881Z,5.40
2019-06-20T13:27:00.548Z,8.07
2019-06-20T13:29:27.211Z,7.37
2019-06-20T13:32:03.524Z,7.33
2019-06-20T13:34:22.467Z,8.03
2019-06-20T13:36:49.119Z,7.77
2019-06-20T13:39:15.818Z,7.73
2019-06-20T13:41:43.169Z,7.43
2019-06-20T13:44:09.989Z,8.97
2019-06-20T13:46:36.572Z,9.63
2019-06-20T13:49:03.430Z,9.73
2019-06-20T13:51:30.204Z,9.97
2019-06-20T13:53:57.078Z,10.60
2019-06-20T13:56:23.743Z,9.97
2019-06-20T13:58:51.210Z,11.47
2019-06-20T14:01:18.229Z,10.57
2019-06-20T14:03:45.683Z,9.53
2019-06-20T14:06:13.605Z,9.73
2019-06-20T14:08:42.365Z,10.10
2019-06-20T14:11:09.152Z,10.63
2019-06-20T14:13:36.015Z,9.60
2019-06-20T14:16:03.125Z,10.33
2019-06-20T14:18:30.137Z,11.47
2019-06-20T14:20:56.993Z,11.30
2019-06-20T14:23:23.768Z,11.40
2019-06-20T14:25:51.753Z,10.20
2019-06-20T14:28:18.747Z,11.53
2019-06-20T14:30:46.581Z,10.50
2019-06-20T14:33:13.630Z,10.67
2019-06-20T14:35:40.263Z,10.13
2019-06-20T14:38:06.900Z,10.27
2019-06-20T14:40:33.590Z,10.47
2019-06-20T14:43:00.534Z,9.07
2019-06-20T14:45:27.144Z,8.77
2019-06-20T14:47:55.104Z,9.13
2019-06-20T14:50:22.566Z,8.40
2019-06-20T14:52:49.980Z,8.10
2019-06-20T14:55:17.766Z,8.20
2019-06-20T14:57:46.557Z,9.03
2019-06-20T15:00:16.092Z,8.63
2019-06-20T15:02:43.770Z,8.87
2019-06-20T15:05:16.002Z,8.17
2019-06-20T15:07:45.043Z,8.23
2019-06-20T15:10:13.156Z,8.20
2019-06-20T15:12:39.833Z,7.50
2019-06-20T15:15:08.028Z,7.97
2019-06-20T15:17:34.656Z,7.30
2019-06-20T15:20:01.754Z,6.63
2019-06-20T15:22:28.622Z,6.13
2019-06-20T15:24:57.047Z,6.13
2019-06-20T15:27:24.083Z,6.60
2019-06-20T15:29:52.146Z,6.83
2019-06-20T15:32:19.073Z,7.93
2019-06-20T15:34:47.564Z,8.10
2019-06-20T15:37:14.363Z,8.60
2019-06-20T15:39:41.147Z,7.93
2019-06-20T15:42:07.947Z,8.27
2019-06-20T15:44:34.838Z,8.60
2019-06-20T15:47:01.819Z,7.90
2019-06-20T15:49:28.577Z,7.33
2019-06-20T15:51:58.922Z,7.73
2019-06-20T15:54:24.616Z,6.33
2019-06-20T15:56:51.627Z,6.67
2019-06-20T15:59:18.455Z,6.27
2019-06-20T16:01:48.373Z,5.97
2019-06-20T16:04:15.093Z,5.70
2019-06-20T16:06:41.947Z,6.47
2019-06-20T16:09:09.272Z,5.80
2019-06-20T16:11:36.413Z,5.50
2019-06-20T16:14:03.368Z,5.13
2019-06-20T16:16:30.142Z,5.73
2019-06-20T16:18:56.884Z,5.97
2019-06-20T16:21:23.722Z,5.67
2019-06-20T16:23:50.607Z,5.70
2019-06-20T16:26:17.103Z,5.80
2019-06-20T16:28:43.826Z,5.70
2019-06-20T16:31:25.911Z,5.83
2019-06-20T16:33:39.203Z,5.40
2019-06-20T16:36:05.852Z,5.50
2019-06-20T16:38:32.801Z,5.70
2019-06-20T16:40:59.444Z,6.60
2019-06-20T16:43:26.371Z,5.30
2019-06-20T16:45:53.003Z,5.63
2019-06-20T16:48:22.612Z,5.77
2019-06-20T16:50:49.312Z,5.50
2019-06-20T16:53:16.326Z,6.47
2019-06-20T16:55:42.986Z,6.47
2019-06-20T16:58:09.752Z,5.67
2019-06-20T17:00:36.516Z,6.37
2019-06-20T17:03:04.614Z,5.63
2019-06-20T17:05:31.225Z,5.43
2019-06-20T17:07:57.813Z,5.27
2019-06-20T17:10:25.421Z,5.10
2019-06-20T17:12:52.208Z,5.53
2019-06-20T17:15:19.330Z,4.50
2019-06-20T17:17:46.008Z,4.80
2019-06-20T17:20:13.365Z,4.40
2019-06-20T17:22:41.805Z,4.33
2019-06-20T17:25:09.101Z,4.73
2019-06-20T17:27:35.878Z,4.13
2019-06-20T17:30:12.069Z,4.57
2019-06-20T17:32:38.760Z,3.60
2019-06-20T17:35:06.922Z,4.00
2019-06-20T17:37:33.523Z,4.17
2019-06-20T17:39:59.987Z,4.13
2019-06-20T17:42:26.760Z,4.07
2019-06-20T17:44:53.576Z,4.07
2019-06-20T17:47:20.542Z,3.77
2019-06-20T17:49:47.129Z,5.20
2019-06-20T17:52:13.859Z,5.97
2019-06-20T17:54:40.570Z,6.47
2019-06-20T17:57:07.157Z,5.57
2019-06-20T17:59:33.899Z,5.37
2019-06-20T18:02:00.480Z,4.77
2019-06-20T18:04:27.044Z,3.80
2019-06-20T18:06:53.735Z,3.97
2019-06-20T18:09:20.421Z,3.77
2019-06-20T18:11:47.263Z,3.40
2019-06-20T18:14:14.069Z,2.60
2019-06-20T18:16:40.867Z,2.97
2019-06-20T18:19:07.588Z,2.87
2019-06-20T18:21:34.383Z,2.50
2019-06-20T18:24:01.148Z,2.60
2019-06-20T18:26:28.118Z,2.33
2019-06-20T18:28:54.913Z,2.50
2019-06-20T18:31:21.855Z,2.90
2019-06-20T18:33:48.536Z,2.90
2019-06-20T18:36:15.477Z,2.97
2019-06-20T18:38:42.412Z,2.50
2019-06-20T18:41:09.846Z,2.30
2019-06-20T18:43:36.760Z,2.50
2019-06-20T18:46:03.784Z,2.40
2019-06-20T18:48:30.674Z,2.60
2019-06-20T18:50:57.427Z,2.83
2019-06-20T18:53:24.230Z,2.20
2019-06-20T18:55:50.698Z,2.63
2019-06-20T18:58:17.786Z,2.50
2019-06-20T19:00:44.774Z,2.60
2019-06-20T19:03:11.626Z,2.50
2019-06-20T19:05:38.423Z,2.40
2019-06-20T19:08:05.187Z,2.20
2019-06-20T19:10:33.643Z,2.57
2019-06-20T19:13:00.694Z,2.23
2019-06-20T19:15:27.537Z,2.40
2019-06-20T19:17:54.346Z,2.23
2019-06-20T19:20:21.270Z,2.40
2019-06-20T19:22:48.184Z,2.33
2019-06-20T19:25:15.004Z,2.40
2019-06-20T19:27:46.738Z,2.00
2019-06-20T19:30:14.345Z,2.00
2019-06-20T19:32:41.196Z,2.57
2019-06-20T19:35:10.417Z,2.17
2019-06-20T19:37:37.731Z,2.60
2019-06-20T19:40:07.841Z,2.47
2019-06-20T19:42:34.977Z,3.33
2019-06-20T19:45:03.196Z,2.50
2019-06-20T19:47:30.142Z,2.20
2019-06-20T19:49:57.091Z,2.37
2019-06-20T19:52:23.753Z,3.00
2019-06-20T19:54:50.521Z,3.07
2019-06-20T19:57:17.349Z,3.00
2019-06-20T19:59:46.120Z,2.80
2019-06-20T20:02:12.980Z,2.73
2019-06-20T20:04:39.764Z,3.40
2019-06-20T20:07:06.521Z,3.10
2019-06-20T20:09:33.444Z,3.57
2019-06-20T20:12:00.114Z,3.57
2019-06-20T20:14:27.034Z,3.50
2019-06-20T20:16:53.854Z,3.77
2019-06-20T20:19:20.767Z,3.90
2019-06-20T20:21:47.524Z,3.90
2019-06-20T20:24:14.462Z,3.73
2019-06-20T20:26:41.319Z,3.63
2019-06-20T20:29:08.127Z,3.60
2019-06-20T20:31:35.065Z,3.80
2019-06-20T20:34:01.784Z,3.37
2019-06-20T20:36:28.596Z,3.50
2019-06-20T20:38:55.283Z,3.20
2019-06-20T20:41:22.148Z,3.50
2019-06-20T20:43:48.737Z,3.47
2019-06-20T20:46:15.557Z,3.63
2019-06-20T20:48:42.552Z,3.80
2019-06-20T20:51:09.198Z,4.60
2019-06-20T20:53:35.823Z,3.73
2019-06-20T20:56:02.724Z,4.43
2019-06-20T20:58:29.493Z,4.73
2019-06-20T21:01:01.750Z,4.93
2019-06-20T21:03:28.415Z,5.97
2019-06-20T21:05:55.264Z,7.07
2019-06-20T21:08:21.872Z,6.40
2019-06-20T21:10:48.628Z,5.93
2019-06-20T21:13:15.051Z,5.97
2019-06-20T21:15:41.919Z,5.97
2019-06-20T21:18:08.558Z,6.37
2019-06-20T21:20:35.229Z,6.33
2019-06-20T21:23:01.894Z,6.87
2019-06-20T21:25:32.035Z,6.73
2019-06-20T21:27:57.146Z,7.10
2019-06-20T21:30:25.551Z,6.97
2019-06-20T21:32:52.062Z,7.60
2019-06-20T21:35:19.168Z,7.53
2019-06-20T21:37:45.777Z,6.87
2019-06-20T21:40:12.767Z,6.10
2019-06-20T21:42:39.348Z,6.97
2019-06-20T21:45:07.401Z,6.60
2019-06-20T21:47:34.210Z,6.73
2019-06-20T21:50:00.823Z,6.40
2019-06-20T21:52:27.411Z,7.37
2019-06-20T21:54:53.855Z,7.20
2019-06-20T21:57:20.284Z,7.13
2019-06-20T21:59:46.939Z,7.33
2019-06-20T22:02:13.649Z,7.60
2019-06-20T22:04:53.737Z,6.87
2019-06-20T22:07:08.775Z,8.90
2019-06-20T22:09:35.618Z,8.37
2019-06-20T22:12:02.369Z,7.87
2019-06-20T22:14:32.372Z,8.93
2019-06-20T22:16:57.603Z,8.27
2019-06-20T22:19:24.375Z,9.43
2019-06-20T22:21:50.885Z,9.37
2019-06-20T22:24:17.510Z,7.60
2019-06-20T22:26:43.930Z,8.40
2019-06-20T22:29:10.430Z,8.10
2019-06-20T22:31:37.112Z,8.23
2019-06-20T22:34:03.871Z,8.53
2019-06-20T22:36:39.753Z,8.23
2019-06-20T22:38:59.020Z,8.23
2019-06-20T22:41:25.658Z,8.03
2019-06-20T22:43:52.134Z,7.50
2019-06-20T22:46:18.557Z,9.17
2019-06-20T22:48:45.109Z,8.33
2019-06-20T22:51:13.781Z,7.37
2019-06-20T22:53:40.326Z,8.87
2019-06-20T22:56:06.966Z,8.90
2019-06-20T22:58:33.498Z,9.17
2019-06-20T23:00:59.825Z,9.23
2019-06-20T23:03:26.426Z,9.67
2019-06-20T23:05:53.158Z,9.07
2019-06-20T23:08:19.616Z,9.30
2019-06-20T23:10:46.029Z,10.37
2019-06-20T23:13:12.714Z,10.20
2019-06-20T23:15:39.722Z,9.47
2019-06-20T23:18:06.314Z,10.60
2019-06-20T23:20:33.056Z,10.97
2019-06-20T23:22:59.635Z,12.03
2019-06-20T23:25:26.337Z,12.03
2019-06-20T23:27:52.824Z,11.80
2019-06-20T23:30:21.048Z,13.40
2019-06-20T23:32:47.424Z,12.10
2019-06-20T23:35:14.063Z,11.70
2019-06-20T23:37:40.678Z,12.03
2019-06-20T23:40:09.303Z,12.37
2019-06-20T23:42:36.094Z,12.07
2019-06-20T23:45:05.233Z,12.80
2019-06-20T23:47:31.870Z,14.30
2019-06-20T23:49:58.360Z,13.00
2019-06-20T23:52:26.806Z,12.80
2019-06-20T23:54:53.306Z,12.10
2019-06-20T23:57:19.880Z,12.53
2019-06-20T23:59:46.443Z,13.57
